Time;durP1;ratioP1;P1;durP2;ratioP2;P2;SDS_P1;SDS_P2;PMS_P1;PMS_P2;Temp;Humidity;BMP_temperature;BMP_pressure;BME280_temperature;BME280_humidity;BME280_pressure;Samples;Min_cycle;Max_cycle;Signal;HPM_P1;HPM_P2
2023/04/09 00:02:15;;;;;;;20.80;13.60;;;7.70;99.90;;;;;;5053267;28;20162;-68
2023/04/09 00:04:40;;;;;;;21.87;14.60;;;7.60;99.90;;;;;;5052055;28;20187;-67
2023/04/09 00:07:06;;;;;;;19.37;12.87;;;7.60;99.90;;;;;;5053168;28;20933;-67
2023/04/09 00:09:31;;;;;;;22.80;14.17;;;7.50;99.90;;;;;;5053981;28;20171;-67
2023/04/09 00:11:57;;;;;;;18.40;12.33;;;7.40;99.90;;;;;;5053939;28;20805;-68
2023/04/09 00:14:22;;;;;;;23.13;14.27;;;7.40;99.90;;;;;;5052249;28;20268;-66
2023/04/09 00:16:48;;;;;;;18.40;12.80;;;7.30;99.90;;;;;;5052022;28;20159;-67
2023/04/09 00:19:14;;;;;;;20.93;14.40;;;7.20;99.90;;;;;;5053949;28;20178;-68
2023/04/09 00:21:40;;;;;;;22.63;13.37;;;7.20;99.90;;;;;;5054206;28;20181;-68
2023/04/09 00:24:05;;;;;;;21.40;14.13;;;7.20;99.90;;;;;;5051505;28;20274;-68
2023/04/09 00:26:31;;;;;;;21.63;13.77;;;7.10;99.90;;;;;;5053616;28;20667;-67
2023/04/09 00:28:56;;;;;;;20.10;14.47;;;7.10;99.90;;;;;;5051634;28;20178;-67
2023/04/09 00:31:22;;;;;;;16.80;12.57;;;7.00;99.90;;;;;;5051962;28;20173;-66
2023/04/09 00:33:47;;;;;;;22.90;13.27;;;7.00;99.90;;;;;;5052744;28;20186;-67
2023/04/09 00:36:13;;;;;;;22.90;14.07;;;6.90;99.90;;;;;;5055569;28;20191;-67
2023/04/09 00:38:39;;;;;;;18.27;11.77;;;6.90;99.90;;;;;;5051945;28;20167;-67
2023/04/09 00:41:05;;;;;;;19.67;14.07;;;6.80;99.90;;;;;;5051747;28;20640;-67
2023/04/09 00:43:30;;;;;;;20.90;13.37;;;6.80;99.90;;;;;;5051745;28;20418;-66
2023/04/09 00:45:57;;;;;;;22.43;13.33;;;6.70;99.90;;;;;;5051728;28;20797;-67
2023/04/09 00:48:23;;;;;;;21.40;11.57;;;6.70;99.90;;;;;;5052576;28;20178;-68
2023/04/09 00:50:49;;;;;;;12.70;10.60;;;6.60;99.90;;;;;;5052272;28;20413;-68
2023/04/09 00:53:15;;;;;;;21.60;14.53;;;6.60;99.90;;;;;;5051752;28;20242;-67
2023/04/09 00:55:41;;;;;;;16.63;12.37;;;6.50;99.90;;;;;;5051532;28;20663;-68
2023/04/09 00:58:06;;;;;;;24.13;13.30;;;6.50;99.90;;;;;;5051417;28;20410;-67
2023/04/09 01:00:32;;;;;;;21.10;13.33;;;6.40;99.90;;;;;;5051339;28;20401;-67
2023/04/09 01:02:58;;;;;;;21.50;14.27;;;6.40;99.90;;;;;;5051524;28;20163;-67
2023/04/09 01:05:30;;;;;;;18.70;12.97;;;6.40;99.90;;;;;;5051549;28;20555;-66
2023/04/09 01:08:11;;;;;;;18.80;11.90;;;6.40;99.90;;;;;;5054016;28;20405;-68
2023/04/09 01:11:00;;;;;;;19.57;12.97;;;6.40;99.90;;;;;;5053513;28;20427;-67
2023/04/09 01:13:48;;;;;;;21.50;13.20;;;6.30;99.90;;;;;;5055666;28;20456;-68
2023/04/09 01:16:15;;;;;;;17.60;12.33;;;6.30;99.90;;;;;;5057154;28;20464;-67
2023/04/09 01:18:50;;;;;;;17.77;12.50;;;6.30;99.90;;;;;;5054782;28;20404;-66
2023/04/09 01:21:19;;;;;;;19.67;13.70;;;6.30;99.90;;;;;;5056765;28;20484;-67
2023/04/09 01:24:15;;;;;;;14.43;11.47;;;6.40;99.90;;;;;;5054909;28;20451;-67
2023/04/09 01:26:59;;;;;;;17.20;11.40;;;6.50;99.90;;;;;;5055148;28;20397;-67
2023/04/09 01:29:26;;;;;;;16.77;12.40;;;6.50;99.90;;;;;;5055131;28;20892;-67
2023/04/09 01:31:54;;;;;;;16.83;12.53;;;6.60;99.90;;;;;;5057159;28;20401;-68
2023/04/09 01:34:21;;;;;;;18.63;13.40;;;6.70;99.90;;;;;;5054572;28;20479;-66
2023/04/09 01:36:52;;;;;;;19.37;13.40;;;6.70;99.90;;;;;;5054959;28;20462;-68
2023/04/09 01:39:18;;;;;;;18.57;14.10;;;6.80;99.90;;;;;;5055243;28;20436;-68
2023/04/09 01:41:45;;;;;;;19.50;14.50;;;6.80;99.90;;;;;;5057243;28;20401;-68
2023/04/09 01:44:12;;;;;;;21.80;15.10;;;6.90;99.90;;;;;;5054672;28;20273;-67
2023/04/09 01:46:39;;;;;;;20.17;13.40;;;7.00;99.90;;;;;;5054823;28;20405;-67
2023/04/09 01:49:05;;;;;;;16.53;12.57;;;7.00;99.90;;;;;;5054517;28;20455;-67
2023/04/09 01:51:32;;;;;;;16.30;13.20;;;7.10;99.90;;;;;;5054725;28;20977;-67
2023/04/09 01:53:58;;;;;;;18.57;13.57;;;7.10;99.90;;;;;;5054572;28;20499;-67
2023/04/09 01:56:24;;;;;;;19.37;14.00;;;7.10;99.90;;;;;;5054737;28;20893;-68
2023/04/09 01:58:51;;;;;;;19.97;13.90;;;7.10;99.90;;;;;;5052741;28;20438;-68
2023/04/09 02:01:35;;;;;;;24.73;16.10;;;7.10;99.90;;;;;;5054587;28;20195;-67
2023/04/09 02:04:03;;;;;;;23.43;14.07;;;7.00;99.90;;;;;;5054859;28;20436;-67
2023/04/09 02:06:53;;;;;;;26.37;14.93;;;6.90;99.90;;;;;;5055860;28;20957;-67
2023/04/09 02:09:20;;;;;;;23.73;14.57;;;6.90;99.90;;;;;;5055945;28;20389;-67
2023/04/09 02:11:48;;;;;;;22.97;13.93;;;6.90;99.90;;;;;;5054314;28;20489;-68
2023/04/09 02:14:15;;;;;;;23.67;15.97;;;6.90;99.90;;;;;;5054705;28;20452;-67
2023/04/09 02:16:41;;;;;;;21.27;14.93;;;6.90;99.90;;;;;;5054942;28;20405;-68
2023/04/09 02:19:07;;;;;;;24.20;16.07;;;6.90;99.90;;;;;;5055464;28;20398;-67
2023/04/09 02:21:32;;;;;;;27.50;16.50;;;6.80;99.90;;;;;;5054895;28;20409;-67
2023/04/09 02:23:58;;;;;;;26.57;16.50;;;6.70;99.90;;;;;;5054776;28;20187;-68
2023/04/09 02:26:24;;;;;;;23.93;15.03;;;6.70;99.90;;;;;;5053536;28;20175;-67
2023/04/09 02:28:49;;;;;;;28.77;16.97;;;6.70;99.90;;;;;;5053728;28;20171;-67
2023/04/09 02:31:15;;;;;;;21.33;14.40;;;6.70;99.90;;;;;;5054022;28;20221;-67
2023/04/09 02:33:41;;;;;;;27.80;18.23;;;6.80;99.90;;;;;;5054790;28;20202;-68
2023/04/09 02:36:11;;;;;;;26.20;15.97;;;6.80;99.90;;;;;;5053801;28;20530;-68
2023/04/09 02:38:39;;;;;;;22.90;16.60;;;6.70;99.90;;;;;;5054021;28;20246;-68
2023/04/09 02:41:04;;;;;;;25.63;17.60;;;6.70;99.90;;;;;;5053451;28;20416;-68
2023/04/09 02:43:30;;;;;;;23.13;15.43;;;6.70;99.90;;;;;;5053559;28;20423;-68
2023/04/09 02:45:55;;;;;;;22.87;16.00;;;6.70;99.90;;;;;;5053741;28;20263;-67
2023/04/09 02:48:21;;;;;;;25.33;13.77;;;6.60;99.90;;;;;;5053380;28;20240;-67
2023/04/09 02:50:46;;;;;;;26.07;16.70;;;6.60;99.90;;;;;;5052193;28;20178;-67
2023/04/09 02:53:12;;;;;;;22.87;15.57;;;6.60;99.90;;;;;;5053494;28;20636;-68
2023/04/09 02:55:37;;;;;;;19.70;13.90;;;6.60;99.90;;;;;;5053446;28;20233;-68
2023/04/09 02:58:03;;;;;;;20.00;14.27;;;6.50;99.90;;;;;;5053304;28;20167;-68
2023/04/09 03:00:28;;;;;;;20.80;15.17;;;6.40;99.90;;;;;;5052036;28;20182;-68
2023/04/09 03:02:54;;;;;;;25.33;14.13;;;6.40;99.90;;;;;;5053361;28;20171;-67
2023/04/09 03:05:20;;;;;;;23.67;14.47;;;6.30;99.90;;;;;;5051691;28;20585;-67
2023/04/09 03:07:46;;;;;;;20.37;14.40;;;6.20;99.90;;;;;;5052966;28;20167;-68
2023/04/09 03:10:11;;;;;;;18.40;14.40;;;6.10;99.90;;;;;;5053208;28;20637;-67
2023/04/09 03:12:37;;;;;;;17.47;14.17;;;6.10;99.90;;;;;;5053024;28;20436;-68
2023/04/09 03:15:03;;;;;;;16.47;11.40;;;6.00;99.90;;;;;;5052956;28;20272;-68
2023/04/09 03:17:30;;;;;;;18.90;12.97;;;5.90;99.90;;;;;;5052894;28;20580;-68
2023/04/09 03:19:56;;;;;;;18.93;12.27;;;5.80;99.90;;;;;;5052992;28;20415;-68
2023/04/09 03:22:22;;;;;;;28.43;18.93;;;5.70;99.90;;;;;;5051667;28;20488;-67
2023/04/09 03:24:47;;;;;;;31.47;20.20;;;5.60;99.90;;;;;;5052928;28;20595;-68
2023/04/09 03:27:13;;;;;;;20.47;15.47;;;5.50;99.90;;;;;;5052645;28;20179;-66
2023/04/09 03:29:38;;;;;;;19.77;13.20;;;5.50;99.90;;;;;;5052888;28;20258;-68
2023/04/09 03:32:04;;;;;;;27.27;18.03;;;5.40;99.90;;;;;;5052831;28;20586;-68
2023/04/09 03:34:29;;;;;;;23.90;17.00;;;5.40;99.90;;;;;;5052541;28;20195;-67
2023/04/09 03:36:55;;;;;;;22.90;14.97;;;5.30;99.90;;;;;;5051056;28;20533;-66
2023/04/09 03:39:20;;;;;;;22.67;13.30;;;5.20;99.90;;;;;;5052787;28;20167;-68
2023/04/09 03:41:46;;;;;;;17.87;12.00;;;5.20;99.90;;;;;;5052835;28;20159;-67
2023/04/09 03:44:12;;;;;;;22.10;12.90;;;5.10;99.90;;;;;;5051318;28;20659;-67
2023/04/09 03:46:37;;;;;;;25.30;17.00;;;5.10;99.90;;;;;;5052541;28;20167;-67
2023/04/09 03:49:03;;;;;;;21.17;14.03;;;5.10;99.90;;;;;;5052157;28;20182;-68
2023/04/09 03:51:28;;;;;;;20.43;14.87;;;5.00;99.90;;;;;;5052529;28;20535;-67
2023/04/09 03:53:54;;;;;;;23.43;14.90;;;4.90;99.90;;;;;;5052513;28;20214;-67
2023/04/09 03:56:19;;;;;;;21.20;13.73;;;4.90;99.90;;;;;;5052140;28;20264;-67
2023/04/09 03:58:47;;;;;;;23.50;15.17;;;4.90;99.90;;;;;;5052056;28;20213;-68
2023/04/09 04:01:12;;;;;;;43.77;28.33;;;4.90;99.90;;;;;;5052273;28;20588;-67
2023/04/09 04:03:38;;;;;;;41.07;24.27;;;4.90;99.90;;;;;;5052013;28;20453;-67
2023/04/09 04:06:03;;;;;;;36.60;22.83;;;4.90;99.90;;;;;;5052111;28;20199;-68
2023/04/09 04:08:29;;;;;;;32.30;19.03;;;4.90;99.90;;;;;;5051897;28;20254;-67
2023/04/09 04:10:54;;;;;;;24.80;15.70;;;4.80;99.90;;;;;;5052151;28;20171;-67
2023/04/09 04:13:20;;;;;;;23.10;15.20;;;4.80;99.90;;;;;;5051887;28;20178;-67
2023/04/09 04:15:46;;;;;;;25.37;14.07;;;4.80;99.90;;;;;;5051994;28;20190;-66
2023/04/09 04:18:12;;;;;;;20.90;13.73;;;4.70;99.90;;;;;;5051771;28;20199;-67
2023/04/09 04:20:39;;;;;;;24.10;16.10;;;4.70;99.90;;;;;;5051880;28;20974;-68
2023/04/09 04:23:05;;;;;;;19.90;12.70;;;4.70;99.90;;;;;;5050769;28;20185;-68
2023/04/09 04:25:31;;;;;;;24.33;15.03;;;4.70;99.90;;;;;;5051887;28;20914;-67
2023/04/09 04:27:56;;;;;;;25.63;16.87;;;4.60;99.90;;;;;;5051725;28;20171;-66
2023/04/09 04:30:22;;;;;;;22.03;15.43;;;4.60;99.90;;;;;;5051816;28;20216;-68
2023/04/09 04:32:48;;;;;;;22.90;14.20;;;4.60;99.90;;;;;;5051821;28;20198;-67
2023/04/09 04:35:14;;;;;;;21.03;15.40;;;4.60;99.90;;;;;;5051692;28;20289;-68
2023/04/09 04:37:39;;;;;;;29.97;20.70;;;4.60;99.90;;;;;;5051620;28;20420;-67
2023/04/09 04:40:08;;;;;;;31.83;19.50;;;4.60;99.90;;;;;;5051829;28;20624;-67
2023/04/09 04:42:34;;;;;;;24.47;15.70;;;4.50;99.90;;;;;;5051919;28;20540;-68
2023/04/09 04:45:00;;;;;;;22.40;15.43;;;4.60;99.90;;;;;;5051750;28;20417;-67
2023/04/09 04:47:25;;;;;;;30.00;17.73;;;4.70;99.90;;;;;;5051530;28;20405;-67
2023/04/09 04:49:51;;;;;;;48.03;29.07;;;4.70;99.90;;;;;;5055898;28;20167;-67
2023/04/09 04:52:17;;;;;;;28.13;18.20;;;4.70;99.90;;;;;;5055853;28;20155;-67
2023/04/09 04:54:43;;;;;;;28.07;15.97;;;4.70;99.90;;;;;;5054629;28;20548;-67
2023/04/09 04:57:09;;;;;;;21.00;14.90;;;4.70;99.90;;;;;;5055506;28;20158;-68
2023/04/09 04:59:41;;;;;;;24.90;15.67;;;4.80;99.90;;;;;;5055938;28;20171;-68
2023/04/09 05:02:07;;;;;;;23.30;15.77;;;4.90;99.90;;;;;;5055597;28;20165;-68
2023/04/09 05:04:33;;;;;;;21.77;15.00;;;5.00;99.90;;;;;;5055496;28;20421;-67
2023/04/09 05:06:58;;;;;;;24.83;14.43;;;5.10;99.90;;;;;;5055312;28;20404;-67
2023/04/09 05:09:24;;;;;;;20.63;14.60;;;5.20;99.90;;;;;;5055578;28;20159;-68
2023/04/09 05:11:50;;;;;;;20.13;13.27;;;5.30;99.90;;;;;;5055526;28;20233;-68
2023/04/09 05:14:15;;;;;;;20.13;15.40;;;5.40;99.90;;;;;;5055292;28;20282;-67
2023/04/09 05:16:41;;;;;;;23.17;14.33;;;5.50;99.90;;;;;;5055301;28;20678;-67
2023/04/09 05:19:07;;;;;;;25.27;15.60;;;5.60;99.90;;;;;;5055154;28;20636;-68
2023/04/09 05:21:32;;;;;;;18.17;12.43;;;5.70;99.90;;;;;;5055318;28;20690;-67
2023/04/09 05:23:58;;;;;;;20.63;13.73;;;5.80;99.90;;;;;;5055050;28;20212;-66
2023/04/09 05:26:23;;;;;;;20.63;15.80;;;5.80;99.90;;;;;;5055033;28;20664;-67
2023/04/09 05:28:49;;;;;;;22.03;15.13;;;6.00;99.90;;;;;;5054730;28;20175;-67
2023/04/09 05:31:15;;;;;;;17.97;14.10;;;6.10;99.90;;;;;;5054892;28;20185;-67
2023/04/09 05:33:41;;;;;;;18.87;13.57;;;6.30;99.90;;;;;;5054895;28;20193;-67
2023/04/09 05:36:06;;;;;;;21.47;14.13;;;6.60;99.90;;;;;;5054993;28;20191;-67
2023/04/09 05:38:32;;;;;;;18.10;13.90;;;6.80;99.90;;;;;;5054790;28;20459;-67
2023/04/09 05:40:59;;;;;;;18.10;13.77;;;7.10;99.90;;;;;;5054755;28;20170;-67
2023/04/09 05:43:24;;;;;;;22.80;16.10;;;7.30;99.90;;;;;;5054739;28;20402;-66
2023/04/09 05:45:50;;;;;;;20.83;15.60;;;7.50;99.90;;;;;;5053588;28;20417;-67
2023/04/09 05:48:17;;;;;;;21.33;12.90;;;7.70;99.90;;;;;;5054484;28;20178;-68
2023/04/09 05:50:49;;;;;;;20.40;14.83;;;7.80;99.90;;;;;;5054813;28;20159;-67
2023/04/09 05:53:15;;;;;;;20.97;15.57;;;8.10;99.90;;;;;;5053465;28;20428;-67
2023/04/09 05:55:40;;;;;;;18.83;14.23;;;8.40;99.90;;;;;;5054642;28;20449;-67
2023/04/09 05:58:06;;;;;;;22.33;15.97;;;8.50;99.90;;;;;;5054349;28;20175;-68
2023/04/09 06:00:31;;;;;;;21.80;16.10;;;8.70;99.90;;;;;;5053287;28;20163;-68
2023/04/09 06:02:57;;;;;;;19.27;14.40;;;8.80;99.90;;;;;;5054428;28;20170;-67
2023/04/09 06:05:22;;;;;;;18.13;12.70;;;8.80;99.90;;;;;;5054382;28;20664;-68
2023/04/09 06:07:48;;;;;;;16.73;12.80;;;8.80;99.90;;;;;;5054208;28;20220;-68
2023/04/09 06:10:13;;;;;;;23.10;12.37;;;8.70;99.90;;;;;;5054198;28;20228;-67
2023/04/09 06:12:39;;;;;;;19.43;12.47;;;8.60;99.90;;;;;;5052908;28;20190;-66
2023/04/09 06:15:05;;;;;;;19.97;13.73;;;8.60;99.90;;;;;;5052680;28;20339;-68
2023/04/09 06:17:30;;;;;;;17.43;11.33;;;9.00;99.90;;;;;;5053761;28;20163;-67
2023/04/09 06:19:56;;;;;;;19.07;12.57;;;9.70;99.90;;;;;;5054204;28;20901;-68
2023/04/09 06:22:21;;;;;;;17.73;13.07;;;10.40;99.90;;;;;;5054210;28;20167;-67
2023/04/09 06:24:47;;;;;;;17.80;12.10;;;11.20;99.90;;;;;;5053985;28;20238;-67
2023/04/09 06:27:12;;;;;;;18.20;14.57;;;11.80;99.90;;;;;;5053824;28;20171;-68
2023/04/09 06:29:38;;;;;;;14.07;10.07;;;12.20;99.90;;;;;;5054113;28;20176;-68
2023/04/09 06:32:04;;;;;;;13.80;10.87;;;12.90;99.90;;;;;;5053817;28;20206;-68
2023/04/09 06:34:30;;;;;;;14.40;11.10;;;14.00;99.90;;;;;;5053923;28;20551;-67
2023/04/09 06:36:55;;;;;;;17.40;12.10;;;15.10;99.90;;;;;;5053646;28;20401;-68
2023/04/09 06:39:21;;;;;;;12.23;10.37;;;16.10;99.90;;;;;;5053912;28;20163;-68
2023/04/09 06:41:46;;;;;;;12.77;9.60;;;17.10;99.90;;;;;;5054032;28;20167;-68
2023/04/09 06:44:12;;;;;;;10.13;9.03;;;17.80;99.90;;;;;;5053544;28;20214;-68
2023/04/09 06:46:38;;;;;;;17.30;9.70;;;18.80;99.90;;;;;;5053688;28;20167;-68
2023/04/09 06:49:03;;;;;;;13.90;9.27;;;19.70;99.90;;;;;;5053474;28;20178;-69
2023/04/09 06:51:29;;;;;;;10.83;9.70;;;20.50;88.90;;;;;;5053958;28;20163;-69
2023/04/09 06:53:54;;;;;;;10.67;9.37;;;21.40;80.10;;;;;;5053931;28;20194;-67
2023/04/09 06:56:20;;;;;;;10.70;9.60;;;21.60;68.10;;;;;;5053461;28;20190;-67
2023/04/09 06:58:46;;;;;;;13.30;10.13;;;22.20;65.10;;;;;;5052974;28;20167;-67
2023/04/09 07:01:11;;;;;;;10.80;9.57;;;22.40;58.20;;;;;;5053370;28;20163;-67
2023/04/09 07:03:37;;;;;;;9.80;8.63;;;22.80;57.10;;;;;;5053362;28;20603;-67
2023/04/09 07:06:03;;;;;;;10.87;7.93;;;22.90;55.00;;;;;;5052146;28;20171;-67
2023/04/09 07:08:28;;;;;;;10.47;9.37;;;23.10;53.80;;;;;;5053333;28;20249;-67
2023/04/09 07:10:54;;;;;;;12.77;8.27;;;23.20;54.10;;;;;;5053209;28;20167;-68
2023/04/09 07:13:20;;;;;;;14.23;10.17;;;23.50;54.20;;;;;;5053224;28;20559;-67
2023/04/09 07:15:45;;;;;;;9.13;8.10;;;23.50;52.10;;;;;;5053030;28;20205;-67
2023/04/09 07:18:11;;;;;;;9.63;8.63;;;23.00;51.60;;;;;;5052902;28;20432;-67
2023/04/09 07:20:36;;;;;;;10.70;8.87;;;22.90;51.30;;;;;;5053052;28;20171;-68
2023/04/09 07:23:02;;;;;;;11.13;9.50;;;23.10;51.80;;;;;;5053158;28;20225;-68
2023/04/09 07:25:27;;;;;;;12.83;9.53;;;22.70;50.80;;;;;;5052887;28;20186;-67
2023/04/09 07:27:53;;;;;;;11.00;9.80;;;22.90;50.40;;;;;;5051295;28;20175;-67
2023/04/09 07:30:19;;;;;;;11.00;8.67;;;22.70;49.80;;;;;;5052712;28;20199;-68
2023/04/09 07:32:45;;;;;;;9.93;8.03;;;23.60;50.90;;;;;;5052788;28;20179;-67
2023/04/09 07:35:10;;;;;;;10.80;7.83;;;23.40;49.60;;;;;;5052588;28;20468;-68
2023/04/09 07:37:36;;;;;;;8.70;7.80;;;24.30;51.60;;;;;;5052354;28;20221;-68
2023/04/09 07:40:04;;;;;;;9.60;8.70;;;24.90;49.20;;;;;;5052681;28;20163;-67
2023/04/09 07:42:30;;;;;;;10.40;8.67;;;25.40;48.20;;;;;;5052317;28;20171;-67
2023/04/09 07:44:55;;;;;;;8.00;7.20;;;25.30;47.40;;;;;;5051268;28;20987;-68
2023/04/09 07:47:22;;;;;;;8.23;7.17;;;25.70;46.80;;;;;;5051949;28;20171;-68
2023/04/09 07:49:48;;;;;;;8.77;6.77;;;26.00;46.50;;;;;;5051878;28;20293;-69
2023/04/09 07:52:14;;;;;;;8.50;7.00;;;25.90;46.50;;;;;;5051738;28;20512;-67
2023/04/09 07:54:39;;;;;;;9.03;8.20;;;25.70;44.60;;;;;;5051929;28;20191;-68
2023/04/09 07:57:05;;;;;;;8.50;7.20;;;26.20;44.60;;;;;;5051660;28;20728;-68
2023/04/09 07:59:31;;;;;;;8.43;6.70;;;25.90;43.80;;;;;;5052012;28;20182;-67
2023/04/09 08:01:57;;;;;;;7.33;6.10;;;26.20;44.70;;;;;;5052368;28;20402;-67
2023/04/09 08:04:23;;;;;;;8.07;6.43;;;26.10;43.50;;;;;;5051738;28;20186;-68
2023/04/09 08:06:52;;;;;;;8.47;6.07;;;25.20;42.70;;;;;;5052090;28;20178;-73
2023/04/09 08:09:18;;;;;;;6.17;5.57;;;25.10;43.20;;;;;;5052171;28;20166;-67
2023/04/09 08:11:45;;;;;;;8.73;7.17;;;25.30;43.90;;;;;;5052057;28;20406;-66
2023/04/09 08:14:15;;;;;;;7.10;6.10;;;25.30;44.80;;;;;;5051907;28;20444;-68
2023/04/09 08:16:42;;;;;;;7.87;7.00;;;26.10;44.90;;;;;;5052001;28;20511;-68
2023/04/09 08:19:09;;;;;;;9.20;6.73;;;27.00;44.20;;;;;;5052003;28;20440;-68
2023/04/09 08:21:45;;;;;;;7.63;6.33;;;27.40;42.00;;;;;;5052017;28;20834;-67
2023/04/09 08:24:10;;;;;;;6.43;5.90;;;28.10;42.00;;;;;;5050918;28;20431;-68
2023/04/09 08:26:40;;;;;;;8.13;7.33;;;28.70;40.80;;;;;;5051961;28;20414;-68
2023/04/09 08:29:07;;;;;;;7.03;6.33;;;29.20;40.00;;;;;;5051465;28;20193;-68
2023/04/09 08:31:33;;;;;;;8.13;7.33;;;30.10;40.00;;;;;;5051933;28;20402;-69
2023/04/09 08:33:58;;;;;;;7.73;7.03;;;30.80;38.60;;;;;;5051906;28;20421;-68
2023/04/09 08:36:25;;;;;;;8.07;7.27;;;30.90;37.70;;;;;;5051853;28;20664;-68
2023/04/09 08:38:51;;;;;;;8.53;7.53;;;31.70;36.90;;;;;;5051434;28;20182;-67
2023/04/09 08:41:23;;;;;;;6.50;5.90;;;31.50;35.70;;;;;;5051809;28;20872;-68
2023/04/09 08:43:50;;;;;;;7.63;6.93;;;32.90;36.20;;;;;;5051244;28;20433;-68
2023/04/09 08:46:20;;;;;;;6.60;6.00;;;33.80;34.30;;;;;;5051556;28;20738;-68
2023/04/09 08:48:47;;;;;;;7.13;6.53;;;34.20;34.70;;;;;;5051541;28;20413;-68
2023/04/09 08:51:17;;;;;;;6.73;5.80;;;35.20;32.90;;;;;;5051707;28;20405;-68
2023/04/09 08:53:56;;;;;;;5.43;5.00;;;35.40;31.70;;;;;;5051457;28;20478;-68
2023/04/09 08:56:22;;;;;;;5.93;5.43;;;36.20;30.90;;;;;;5051700;28;20457;-68
2023/04/09 08:58:48;;;;;;;4.80;4.37;;;37.00;30.20;;;;;;5051377;28;20416;-68
2023/04/09 09:01:25;;;;;;;5.67;4.87;;;37.40;29.60;;;;;;5051692;28;20919;-69
2023/04/09 09:03:55;;;;;;;5.70;5.20;;;38.00;29.80;;;;;;5051679;28;20599;-69
2023/04/09 09:06:21;;;;;;;6.73;5.40;;;38.70;28.20;;;;;;5051797;28;20413;-68
2023/04/09 09:09:19;;;;;;;5.03;4.13;;;38.50;26.30;;;;;;5051293;28;20405;-68
2023/04/09 09:11:47;;;;;;;4.63;4.23;;;38.20;25.50;;;;;;5051289;28;20798;-69
2023/04/09 09:14:17;;;;;;;5.80;5.30;;;37.90;25.80;;;;;;5051301;28;20416;-68
2023/04/09 09:16:55;;;;;;;5.13;4.73;;;37.70;26.10;;;;;;5051453;28;20427;-68
2023/04/09 09:19:23;;;;;;;5.27;4.83;;;38.40;27.00;;;;;;5051447;28;20406;-68
2023/04/09 09:22:03;;;;;;;4.87;3.90;;;38.00;25.40;;;;;;5050268;28;20413;-68
2023/04/09 09:24:29;;;;;;;4.47;4.07;;;37.00;25.30;;;;;;5051461;28;20533;-69
2023/04/09 09:26:56;;;;;;;4.93;4.53;;;37.30;26.40;;;;;;5051169;28;20819;-69
2023/04/09 09:29:21;;;;;;;4.50;3.90;;;38.10;26.10;;;;;;5051637;28;20439;-69
2023/04/09 09:31:48;;;;;;;5.53;4.37;;;38.20;25.60;;;;;;5051275;28;20410;-68
2023/04/09 09:34:16;;;;;;;4.87;4.13;;;38.40;25.00;;;;;;5052738;28;20217;-68
2023/04/09 09:36:42;;;;;;;3.70;3.40;;;38.80;25.20;;;;;;5054934;28;20942;-68
2023/04/09 09:39:09;;;;;;;4.50;3.90;;;39.30;25.60;;;;;;5054851;28;20480;-68
2023/04/09 09:41:35;;;;;;;5.10;4.70;;;39.60;25.00;;;;;;5055040;28;20400;-69
2023/04/09 09:44:02;;;;;;;5.53;5.00;;;39.20;24.40;;;;;;5054524;28;20444;-68
2023/04/09 09:46:32;;;;;;;5.10;4.60;;;38.40;24.00;;;;;;5053868;28;20949;-68
2023/04/09 09:48:58;;;;;;;5.83;5.30;;;38.10;25.30;;;;;;5054642;28;20413;-68
2023/04/09 09:51:26;;;;;;;5.27;4.87;;;37.50;24.50;;;;;;5054738;28;20401;-68
2023/04/09 09:53:55;;;;;;;5.03;4.63;;;36.40;25.40;;;;;;5046336;28;20195;-68
2023/04/09 09:56:24;;;;;;;5.20;4.80;;;35.50;25.30;;;;;;5044026;28;21146;-68
2023/04/09 09:59:05;;;;;;;4.80;4.40;;;35.20;26.20;;;;;;5052584;28;20728;-68
2023/04/09 10:01:32;;;;;;;6.07;4.10;;;35.80;27.30;;;;;;5054688;28;20890;-68
2023/04/09 10:04:00;;;;;;;5.03;4.63;;;37.10;26.60;;;;;;5054440;28;20848;-69
2023/04/09 10:06:26;;;;;;;5.90;5.30;;;38.40;26.40;;;;;;5054488;28;20405;-68
2023/04/09 10:08:57;;;;;;;6.23;5.53;;;37.10;25.00;;;;;;5054159;28;20428;-68
2023/04/09 10:11:23;;;;;;;5.67;4.83;;;36.20;25.20;;;;;;5053292;28;20420;-69
2023/04/09 10:13:58;;;;;;;5.43;4.93;;;36.40;25.80;;;;;;5053967;28;20451;-68
2023/04/09 10:16:25;;;;;;;5.47;4.97;;;37.20;25.90;;;;;;5053150;28;21003;-69
2023/04/09 10:18:52;;;;;;;6.57;6.07;;;37.00;25.30;;;;;;5054084;28;20409;-68
2023/04/09 10:21:42;;;;;;;6.50;5.90;;;37.10;25.20;;;;;;5054328;28;20405;-73
2023/04/09 10:24:08;;;;;;;4.83;4.43;;;36.70;24.80;;;;;;5053455;28;20425;-73
2023/04/09 10:26:35;;;;;;;4.63;4.20;;;36.40;25.10;;;;;;5054066;28;20406;-73
2023/04/09 10:29:15;;;;;;;4.63;4.13;;;36.80;25.10;;;;;;5053482;28;20397;-72
2023/04/09 10:32:05;;;;;;;5.03;4.63;;;37.10;25.10;;;;;;5054013;28;20410;-73
2023/04/09 10:34:35;;;;;;;4.80;4.40;;;38.10;24.90;;;;;;5051008;28;20416;-73
2023/04/09 10:37:01;;;;;;;5.17;4.77;;;38.20;24.60;;;;;;5053806;28;20397;-73
2023/04/09 10:39:30;;;;;;;5.20;4.60;;;39.40;25.70;;;;;;5053922;28;20397;-73
2023/04/09 10:41:58;;;;;;;5.33;4.40;;;39.80;24.60;;;;;;5053770;28;20404;-73
2023/04/09 10:44:30;;;;;;;4.40;3.97;;;39.90;24.30;;;;;;5053327;28;20471;-74
2023/04/09 10:46:56;;;;;;;4.10;3.80;;;40.50;24.00;;;;;;5052628;28;20453;-74
2023/04/09 10:49:24;;;;;;;5.03;4.63;;;40.20;23.40;;;;;;5053737;28;20408;-74
2023/04/09 10:52:09;;;;;;;5.37;4.90;;;41.30;24.30;;;;;;5053653;28;20163;-73
2023/04/09 10:54:36;;;;;;;5.20;4.70;;;41.40;23.30;;;;;;5053576;28;20472;-73
2023/04/09 10:57:08;;;;;;;5.07;4.67;;;38.30;22.60;;;;;;5053175;28;20488;-73
2023/04/09 10:59:34;;;;;;;5.60;5.10;;;37.90;24.00;;;;;;5053592;28;20405;-74
2023/04/09 11:01:59;;;;;;;5.10;4.70;;;37.90;24.50;;;;;;5053360;28;20413;-73
2023/04/09 11:04:36;;;;;;;5.07;4.57;;;38.60;24.60;;;;;;5052965;28;20413;-73
2023/04/09 11:07:05;;;;;;;5.10;4.60;;;39.80;24.70;;;;;;5052783;28;20583;-74
2023/04/09 11:09:34;;;;;;;4.70;4.17;;;40.40;24.80;;;;;;5053381;28;20409;-73
2023/04/09 11:12:00;;;;;;;5.17;4.77;;;40.90;24.60;;;;;;5052776;28;20402;-73
2023/04/09 11:14:26;;;;;;;5.53;5.03;;;39.50;24.00;;;;;;5053189;28;20441;-73
2023/04/09 11:16:52;;;;;;;6.43;5.80;;;37.40;23.50;;;;;;5052850;28;21016;-73
2023/04/09 11:19:19;;;;;;;5.27;4.87;;;34.80;24.40;;;;;;5051885;28;20177;-72
2023/04/09 11:21:45;;;;;;;6.17;5.57;;;34.10;25.70;;;;;;5053056;28;20175;-72
2023/04/09 11:24:17;;;;;;;5.87;5.37;;;34.60;26.00;;;;;;5052895;28;20425;-72
2023/04/09 11:26:42;;;;;;;5.90;5.20;;;34.80;26.30;;;;;;5052955;28;20459;-72
2023/04/09 11:29:08;;;;;;;4.63;4.23;;;34.20;26.10;;;;;;5052361;28;20402;-72
2023/04/09 11:31:34;;;;;;;5.40;4.90;;;33.20;26.00;;;;;;5052645;28;20644;-72
2023/04/09 11:34:00;;;;;;;6.50;5.90;;;33.60;26.80;;;;;;5052612;28;20183;-72
2023/04/09 11:36:26;;;;;;;4.97;4.53;;;34.70;27.20;;;;;;5052747;28;20901;-73
2023/04/09 11:38:54;;;;;;;5.90;5.40;;;35.40;26.60;;;;;;5051214;28;20201;-73
2023/04/09 11:41:40;;;;;;;5.90;5.30;;;36.70;26.10;;;;;;5052753;28;20475;-72
2023/04/09 11:44:07;;;;;;;5.30;4.90;;;37.40;24.80;;;;;;5052311;28;20437;-73
2023/04/09 11:46:34;;;;;;;5.53;4.93;;;38.50;24.80;;;;;;5052485;28;20533;-73
2023/04/09 11:49:00;;;;;;;5.00;4.50;;;38.60;24.60;;;;;;5052250;28;20459;-73
2023/04/09 11:51:26;;;;;;;5.90;5.40;;;40.00;24.80;;;;;;5051944;28;20480;-74
2023/04/09 11:53:52;;;;;;;5.30;4.83;;;40.10;24.10;;;;;;5052189;28;20457;-73
2023/04/09 11:56:17;;;;;;;5.63;5.20;;;39.60;23.90;;;;;;5052453;28;20429;-73
2023/04/09 11:58:47;;;;;;;5.73;5.23;;;38.20;23.70;;;;;;5051213;28;20174;-72
2023/04/09 12:01:13;;;;;;;6.00;5.40;;;37.30;24.20;;;;;;5052334;28;20163;-73
2023/04/09 12:03:38;;;;;;;6.33;5.47;;;36.40;24.80;;;;;;5050888;28;20433;-72
2023/04/09 12:06:05;;;;;;;5.97;5.40;;;36.40;25.10;;;;;;5052108;28;20445;-72
2023/04/09 12:08:34;;;;;;;6.17;5.67;;;37.20;25.70;;;;;;5051942;28;20254;-73
2023/04/09 12:11:14;;;;;;;6.07;5.47;;;37.90;25.20;;;;;;5051992;28;20463;-73
2023/04/09 12:13:41;;;;;;;5.70;5.20;;;36.40;24.50;;;;;;5051744;28;20448;-72
2023/04/09 12:16:08;;;;;;;5.93;5.33;;;35.00;25.40;;;;;;5052132;28;20406;-72
2023/04/09 12:18:36;;;;;;;7.63;6.90;;;35.80;26.10;;;;;;5051919;28;20401;-72
2023/04/09 12:21:02;;;;;;;5.90;5.30;;;37.00;26.10;;;;;;5052064;28;20436;-72
2023/04/09 12:23:30;;;;;;;5.50;5.00;;;35.20;24.70;;;;;;5051958;28;20886;-72
2023/04/09 12:25:58;;;;;;;5.77;5.27;;;33.40;25.10;;;;;;5051879;28;20549;-72
2023/04/09 12:28:24;;;;;;;5.63;5.13;;;31.90;26.70;;;;;;5051879;28;20496;-72
2023/04/09 12:30:50;;;;;;;6.50;5.37;;;30.30;27.50;;;;;;5051926;28;20878;-72
2023/04/09 12:33:15;;;;;;;6.07;5.47;;;30.40;28.70;;;;;;5051603;28;20220;-72
2023/04/09 12:35:41;;;;;;;5.33;4.60;;;30.50;28.90;;;;;;5051893;28;20170;-72
2023/04/09 12:38:06;;;;;;;5.80;5.27;;;31.80;28.60;;;;;;5051601;28;20201;-73
2023/04/09 12:40:33;;;;;;;7.93;5.70;;;33.80;28.40;;;;;;5050873;28;20162;-73
2023/04/09 12:42:59;;;;;;;6.37;5.20;;;35.20;27.60;;;;;;5051839;28;20169;-73